Flight Track Log - Related Links

Times and Time Zones

All times are in EDT time to prevent confusion due to time zone crossing. See the CSN3614 flight status page for this flight to view local times or setup timezone preferences in your user account.

Time Position Orientation Groundspeed Altitude Reporting Facility
EDT Latitude Longitude Course Direction KTS MPH feet Rate Location/Type
Mon 04:51:00 AM 44.4319 129.5028 207° Southwest  Level Estimated
Mon 04:52:00 AM 44.3397 129.4369 207° Southwest  Level Estimated
Mon 04:52:38 AM 43.5830 127.9610 207° Southwest 355 409 33,000  Level FlightAware ADS-B
Mon 04:52:53 AM 43.5590 127.9520 195° South 360 414 33,300 517 Climbing FlightAware ADS-B
Mon 04:53:00 AM 44.2475 129.3712 207° Southwest  Level Estimated
Mon 04:53:36 AM 43.4920 127.9380 189° South 363 418 33,500  Level FlightAware ADS-B
Mon 04:54:03 AM 43.4540 127.8960 219° Southwest 367 422 33,700 383 Climbing FlightAware ADS-B
Mon 04:54:23 AM 43.4370 127.8530 241° Southwest 376 433 33,800 316 Climbing FlightAware ADS-B
Mon 04:55:00 AM 43.4260 127.7650 260° West 397 457 34,000 257 Climbing FlightAware ADS-B
Mon 04:55:33 AM 43.4400 127.6830 283° West 421 484 34,100 88 Climbing FlightAware ADS-B
Mon 04:56:08 AM 43.4750 127.6030 301° West 427 491 34,100  Level FlightAware ADS-B
Mon 04:56:43 AM 43.5120 127.5230 303° West 423 487 34,100  Level FlightAware ADS-B
Mon 04:57:17 AM 43.5470 127.4490 303° West 426 490 34,100  Level FlightAware ADS-B
Mon 04:57:53 AM 43.5830 127.3710 303° West 426 490 34,100  Level FlightAware ADS-B
Mon 04:58:29 AM 43.6160 127.3010 303° West 426 490 34,100  Level FlightAware ADS-B
Mon 04:59:05 AM 43.6490 127.2310 303° West 426 490 34,100  Level FlightAware ADS-B
Mon 04:59:41 AM 43.6820 127.1610 303° West 426 490 34,100  Level FlightAware ADS-B
Mon 05:00:18 AM 43.7150 127.0890 302° West 426 490 34,100  Level FlightAware ADS-B
Mon 05:00:54 AM 43.7480 127.0190 303° West 426 490 34,100  Level FlightAware ADS-B
Mon 05:01:30 AM 43.7810 126.9490 303° West 426 490 34,100  Level FlightAware ADS-B
Mon 05:02:08 AM 43.8160 126.8750 303° West 426 490 34,100  Level FlightAware ADS-B
Mon 05:02:44 AM 43.8490 126.8050 303° West 426 490 34,100  Level FlightAware ADS-B
Mon 05:03:20 AM 43.8810 126.7350 302° West 426 490 34,100  Level FlightAware ADS-B
Mon 05:03:58 AM 43.9160 126.6610 303° West 426 490 34,100  Level FlightAware ADS-B
Mon 05:04:34 AM 43.9490 126.5910 303° West 426 490 34,100  Level FlightAware ADS-B
Mon 05:05:10 AM 43.9820 126.5200 303° West 426 490 34,100  Level FlightAware ADS-B
Mon 05:05:46 AM 44.0150 126.4500 303° West 426 490 34,100  Level FlightAware ADS-B
Mon 05:06:22 AM 44.0470 126.3800 302° West 426 490 34,100  Level FlightAware ADS-B
Mon 05:06:58 AM 44.0800 126.3090 303° West 426 490 34,100 -40 Level FlightAware ADS-B
Mon 05:09:00 AM 43.8785 126.2242 197° South  Level Estimated
Mon 05:10:00 AM 43.7794 126.1826 197° South  Level Estimated
Mon 05:11:00 AM 43.6802 126.1413 197° South  Level Estimated
Mon 05:12:00 AM 43.5811 126.1000 197° South  Level Estimated
Mon 05:13:00 AM 43.4819 126.0589 197° South  Level Estimated
Mon 05:14:00 AM 43.3828 126.0179 197° South  Level Estimated
Mon 05:15:00 AM 43.2836 125.9771 197° South  Level Estimated
Mon 05:16:00 AM 43.1844 125.9364 197° South  Level Estimated
Mon 05:17:00 AM 43.0851 125.8958 197° South  Level Estimated
Mon 05:18:00 AM 42.9859 125.8554 197° South  Level Estimated
Mon 05:19:00 AM 42.8867 125.8151 197° South  Level Estimated
Mon 05:20:00 AM 42.7874 125.7749 197° South  Level Estimated
Mon 05:21:00 AM 42.6881 125.7348 197° South  Level Estimated
Mon 05:22:00 AM 42.5888 125.6949 196° South  Level Estimated
Mon 05:23:00 AM 42.4895 125.6551 196° South  Level Estimated
Mon 05:24:00 AM 42.3902 125.6155 196° South  Level Estimated
Mon 05:25:00 AM 42.2909 125.5759 196° South  Level Estimated
Mon 05:26:00 AM 42.1915 125.5365 196° South  Level Estimated
Mon 05:27:00 AM 42.0922 125.4972 196° South  Level Estimated
Mon 05:28:00 AM 41.9928 125.4580 196° South  Level Estimated
Mon 05:29:00 AM 41.8934 125.4190 196° South  Level Estimated
Mon 05:30:00 AM 41.7940 125.3800 196° South  Level Estimated
Mon 05:31:00 AM 41.6946 125.3412 196° South  Level Estimated
Mon 05:32:00 AM 41.5951 125.3025 196° South  Level Estimated
Mon 05:33:00 AM 41.4957 125.2640 196° South  Level Estimated
Mon 05:34:00 AM 41.3963 125.2255 196° South  Level Estimated
Mon 05:35:00 AM 41.2968 125.1872 196° South  Level Estimated
Mon 05:36:00 AM 41.1973 125.1490 196° South  Level Estimated
Mon 05:37:00 AM 41.0978 125.1109 196° South  Level Estimated
Mon 05:38:00 AM 40.9983 125.0729 196° South  Level Estimated
Mon 05:39:00 AM 40.8988 125.0350 196° South  Level Estimated
Mon 05:40:00 AM 40.7993 124.9972 196° South  Level Estimated
Mon 05:41:00 AM 40.6997 124.9596 196° South  Level Estimated
Mon 05:42:00 AM 40.6002 124.9221 196° South  Level Estimated
Mon 05:43:00 AM 40.5006 124.8846 196° South  Level Estimated
Mon 05:44:00 AM 40.4010 124.8473 196° South  Level Estimated
Mon 05:45:00 AM 40.3014 124.8101 196° South  Level Estimated
Mon 05:46:00 AM 40.2019 124.7730 196° South  Level Estimated
Mon 05:47:00 AM 40.1022 124.7361 196° South  Level Estimated
Mon 05:48:00 AM 40.0026 124.6992 196° South  Level Estimated
Mon 05:49:00 AM 39.9030 124.6624 196° South  Level Estimated
Mon 05:50:00 AM 39.8033 124.6257 196° South  Level Estimated
Mon 05:51:00 AM 39.7037 124.5892 196° South  Level Estimated
Mon 05:52:00 AM 39.6040 124.5527 196° South  Level Estimated
Mon 05:53:00 AM 39.5043 124.5164 196° South  Level Estimated
Mon 05:54:00 AM 39.4046 124.4802 196° South  Level Estimated
Mon 05:55:00 AM 39.3049 124.4440 196° South  Level Estimated
Mon 05:56:00 AM 39.2052 124.4080 196° South  Level Estimated
Mon 05:57:00 AM 39.1055 124.3721 196° South  Level Estimated
Mon 05:58:00 AM 39.0057 124.3362 196° South  Level Estimated
Mon 05:59:00 AM 38.9060 124.3005 196° South  Level Estimated
Mon 06:00:00 AM 38.8062 124.2649 196° South  Level Estimated
Mon 06:01:00 AM 38.7065 124.2293 196° South  Level Estimated
Mon 06:02:00 AM 38.6067 124.1939 196° South  Level Estimated
Mon 06:03:00 AM 38.5069 124.1586 195° South  Level Estimated
Mon 06:04:00 AM 38.4071 124.1234 195° South  Level Estimated
Mon 06:05:00 AM 38.3073 124.0882 195° South  Level Estimated
Mon 06:06:00 AM 38.2075 124.0532 195° South  Level Estimated
Mon 06:07:00 AM 38.1076 124.0182 195° South  Level Estimated
Mon 06:08:00 AM 38.0078 123.9834 195° South  Level Estimated
Mon 06:09:00 AM 37.9079 123.9486 195° South  Level Estimated
Mon 06:10:00 AM 37.8081 123.9140 195° South  Level Estimated
Mon 06:11:00 AM 37.7082 123.8794 195° South  Level Estimated
Mon 06:12:00 AM 37.6083 123.8449 195° South  Level Estimated
Mon 06:13:00 AM 37.5084 123.8105 195° South  Level Estimated
Mon 06:14:00 AM 37.4085 123.7763 195° South  Level Estimated
Mon 06:15:00 AM 37.3086 123.7421 195° South  Level Estimated
Mon 06:16:00 AM 37.2087 123.7079 195° South  Level Estimated
Mon 06:17:00 AM 37.1088 123.6739 195° South  Level Estimated
Mon 06:18:00 AM 37.0088 123.6400 195° South  Level Estimated
Mon 06:19:00 AM 36.9089 123.6061 195° South  Level Estimated
Mon 06:20:00 AM 36.8089 123.5724 195° South  Level Estimated
Mon 06:21:00 AM 36.7090 123.5387 195° South  Level Estimated
Mon 06:22:00 AM 36.6090 123.5052 195° South  Level Estimated
Mon 06:23:00 AM 36.5090 123.4717 195° South  Level Estimated
Mon 06:24:00 AM 36.4090 123.4383 195° South  Level Estimated
Mon 06:25:00 AM 36.3090 123.4050 195° South  Level Estimated
Mon 06:26:00 AM 36.2090 123.3717 195° South  Level Estimated
Mon 06:27:00 AM 36.1089 123.3386 195° South  Level Estimated
Mon 06:28:00 AM 36.0089 123.3055 195° South  Level Estimated
Mon 06:29:00 AM 35.9088 123.2726 195° South  Level Estimated
Mon 06:30:00 AM 35.8088 123.2397 195° South  Level Estimated
Mon 06:31:00 AM 35.7087 123.2068 195° South  Level Estimated
Mon 06:32:00 AM 35.6087 123.1741 195° South  Level Estimated
Mon 06:33:00 AM 35.5086 123.1415 195° South  Level Estimated
Mon 06:34:00 AM 35.4085 123.1089 195° South  Level Estimated
Mon 06:35:00 AM 35.3084 123.0764 195° South  Level Estimated
Mon 06:36:00 AM 35.2083 123.0440 195° South  Level Estimated
Mon 06:37:00 AM 35.1082 123.0117 195° South  Level Estimated
Mon 06:38:00 AM 35.0080 122.9794 195° South  Level Estimated
Mon 06:39:00 AM 34.9079 122.9473 195° South  Level Estimated
Mon 06:40:00 AM 34.8078 122.9152 195° South  Level Estimated
Mon 06:41:00 AM 34.7076 122.8832 195° South  Level Estimated
Mon 06:42:00 AM 34.6075 122.8512 195° South  Level Estimated
Mon 06:43:00 AM 34.5073 122.8194 195° South  Level Estimated
Mon 06:44:00 AM 34.4071 122.7876 195° South  Level Estimated
Mon 06:45:00 AM 34.3069 122.7559 195° South  Level Estimated
Mon 06:46:00 AM 34.2067 122.7243 195° South  Level Estimated
Mon 06:47:00 AM 34.1065 122.6927 195° South  Level Estimated
Mon 06:48:00 AM 34.0063 122.6612 195° South  Level Estimated
Mon 06:49:00 AM 33.9061 122.6299 195° South  Level Estimated
Mon 06:50:00 AM 33.8059 122.5985 195° South  Level Estimated
Mon 06:51:00 AM 33.7057 122.5673 195° South  Level Estimated
Mon 06:52:00 AM 33.6054 122.5361 195° South  Level Estimated
Mon 06:52:05 AM 32.7530 122.1160 195° South 488 562 29,900  Level FlightAware ADS-B
Mon 06:52:40 AM 32.6830 122.1500 158° South 485 558 29,300 -963 Descending FlightAware ADS-B
Mon 06:53:26 AM 32.5910 122.1940 158° South 480 552 28,600 -690 Descending FlightAware ADS-B
Mon 06:54:07 AM 32.5090 122.2330 158° South 478 550 28,300 -973 Descending FlightAware ADS-B
Mon 06:54:40 AM 32.4380 122.2670 158° South 470 541 27,400 -1,235 Descending FlightAware ADS-B
Mon 06:55:15 AM 32.3650 122.3020 158° South 486 559 26,900 -963 Descending FlightAware ADS-B
Mon 06:56:01 AM 32.4950 122.2400 338° Northwest 463 533 26,100 -978 Descending FlightAware ADS-B
Mon 06:56:47 AM 32.1910 122.3840 158° South 446 513 25,400 -935 Descending FlightAware ADS-B
Mon 06:57:18 AM 32.1300 122.4130 158° South 441 507 24,900 -896 Descending FlightAware ADS-B
Mon 06:57:54 AM 32.0680 122.4420 158° South 437 503 24,400 -1,250 Descending FlightAware ADS-B
Mon 06:58:30 AM 31.9990 122.4750 158° South 428 493 23,400 -1,875 Descending FlightAware ADS-B
Mon 06:59:14 AM 31.9140 122.5140 159° South 415 478 21,900 -1,671 Descending FlightAware ADS-B
Mon 06:59:49 AM 31.8560 122.5420 158° South 389 448 21,200 -957 Descending FlightAware ADS-B
Mon 07:00:23 AM 31.8010 122.5680 158° South 362 417 20,800 -1,014 Descending FlightAware ADS-B
Mon 07:01:00 AM 31.7490 122.5920 159° South 353 406 20,000 -1,629 Descending FlightAware ADS-B
Mon 07:01:33 AM 31.6960 122.6160 159° South 350 403 18,900 -917 Descending FlightAware ADS-B
Mon 07:02:12 AM 31.6470 122.6400 157° South 350 403 18,900  Level FlightAware ADS-B
Mon 07:02:48 AM 31.6010 122.6620 158° South 350 403 18,900  Level FlightAware ADS-B
Mon 07:03:24 AM 31.5550 122.6840 158° South 350 403 18,900  Level FlightAware ADS-B
Mon 07:04:00 AM 31.5090 122.7050 159° South 350 403 18,900  Level FlightAware ADS-B
Mon 07:04:36 AM 31.4630 122.7270 158° South 350 403 18,900  Level FlightAware ADS-B
Mon 07:05:13 AM 31.4160 122.7490 158° South 350 403 18,900 -3,551 Level FlightAware ADS-B
Mon 07:06:35 AM 31.3480 122.3290 259° West 10,800 -4,745 Descending FlightAware ADS-B
Mon 07:07:03 AM 31.3200 122.2960 225° Southwest 305 351 10,200 -1,500 Descending FlightAware ADS-B
Mon 07:07:15 AM 31.3070 122.2810 225° Southwest 300 345 9,800 -1,800 Descending FlightAware ADS-B
Mon 07:07:33 AM 31.2850 122.2660 210° Southwest 300 345 9,300 -1,610 Descending FlightAware ADS-B
Mon 07:07:56 AM 31.2570 122.2500 206° Southwest 297 342 8,700 -1,660 Descending FlightAware ADS-B
Mon 07:08:20 AM 31.2270 122.2350 203° Southwest 297 342 8,000 -1,800 Descending FlightAware ADS-B
Mon 07:08:36 AM 31.2040 122.2230 204° Southwest 299 344 7,500 -1,941 Descending FlightAware ADS-B
Mon 07:08:54 AM 31.1790 122.2100 204° Southwest 300 345 6,900 -1,895 Descending FlightAware ADS-B
Mon 07:09:14 AM 31.1550 122.1970 205° Southwest 301 346 6,300 -1,733 Descending FlightAware ADS-B
Mon 07:09:39 AM 31.1220 122.1800 204° Southwest 298 343 5,600 -1,500 Descending FlightAware ADS-B
Mon 07:09:54 AM 31.1040 122.1710 203° Southwest 291 335 5,300 -1,543 Descending FlightAware ADS-B
Mon 07:10:14 AM 31.0780 122.1560 206° Southwest 289 333 4,700 -1,200 Descending FlightAware ADS-B
Mon 07:10:34 AM 31.0550 122.1440 204° Southwest 283 326 4,500 -250 Descending FlightAware ADS-B
Mon 07:11:02 AM 31.0270 122.1280 206° Southwest 283 326 4,500 -590 Level FlightAware ADS-B
Mon 07:11:35 AM 30.9860 122.1050 206° Southwest 237 273 3,900 -828 Descending FlightAware ADS-B
Mon 07:12:00 AM 30.9620 122.0910 207° Southwest 221 254 3,700 -686 Descending FlightAware ADS-B
Mon 07:12:10 AM 30.9530 122.0850 210° Southwest 219 252 3,500 -800 Descending FlightAware ADS-B
Mon 07:12:15 AM 30.9490 122.0810 221° Southwest 218 251 3,500  Level FlightAware ADS-B
Mon 07:12:41 AM 30.9340 122.0620 227° Southwest 218 251 3,500 -973 Level FlightAware ADS-B
Mon 07:12:52 AM 30.9250 122.0460 237° Southwest 213 245 2,900 -1,548 Descending FlightAware ADS-B
Mon 07:13:12 AM 30.9140 122.0290 233° Southwest 195 224 2,700 -750 Descending FlightAware ADS-B
Mon 07:13:32 AM 30.9040 122.0140 232° Southwest 195 224 2,400 -1,154 Descending FlightAware ADS-B
Mon 07:13:38 AM 30.9010 122.0060 246° West 195 224 2,200 -1,800 Descending FlightAware ADS-B
Mon 07:13:42 AM 30.9010 122.0020 270° West 190 219 2,100 -500 Descending FlightAware ADS-B
Mon 07:14:02 AM 30.9060 121.9830 287° West 179 206 2,000 -150 Descending FlightAware ADS-B
Mon 07:14:22 AM 30.9120 121.9640 290° West 180 207 2,000  Level FlightAware ADS-B
Mon 07:14:42 AM 30.9180 121.9470 292° West 175 201 2,000  Level FlightAware ADS-B
Mon 07:14:57 AM 30.9250 121.9350 304° West 171 197 2,000  Level FlightAware ADS-B
Mon 07:15:22 AM 30.9350 121.9160 302° West 173 199 2,000  Level FlightAware ADS-B
Mon 07:15:42 AM 30.9450 121.9010 308° West 171 197 2,000  Level FlightAware ADS-B
Mon 07:15:47 AM 30.9480 121.8970 311° West 167 192 2,000  Level FlightAware ADS-B
Mon 07:16:02 AM 30.9580 121.8900 329° Northwest 163 188 2,000  Level FlightAware ADS-B
Mon 07:16:22 AM 30.9720 121.8830 337° Northwest 153 176 2,000  Level FlightAware ADS-B
Mon 07:16:37 AM 30.9820 121.8780 337° Northwest 154 177 2,000  Level FlightAware ADS-B
Mon 07:16:57 AM 30.9960 121.8730 343° North 152 175 2,000  Level FlightAware ADS-B
Mon 07:17:17 AM 31.0100 121.8680 343° North 136 157 2,000 150 Level FlightAware ADS-B
Mon 07:17:37 AM 31.0210 121.8640 343° North 124 143 2,100 -267 Climbing FlightAware ADS-B
Mon 07:18:02 AM 31.0360 121.8580 341° North 134 154 1,800 -600 Descending FlightAware ADS-B
Mon 07:18:17 AM 31.0450 121.8550 344° North 123 142 1,700 -600 Descending FlightAware ADS-B
Mon 07:18:42 AM 31.0600 121.8490 341° North 123 142 1,400 -448 Descending FlightAware ADS-B
Mon 07:19:24 AM 31.0790 121.8420 342° North 124 143 1,200 -646 Descending FlightAware ADS-B
Mon 07:19:47 AM 31.0960 121.8350 341° North 124 143 700 -1,000 Descending FlightAware ADS-B
Mon 07:20:12 AM 31.1110 121.8300 344° North 122 140 400 -333 Descending FlightAware ADS-B
Mon 07:20:41 AM 31.1240 121.8250 342° North 122 140 400  Level FlightAware ADS-B
Mon 07:23:00 AM 31.1428 121.7924 304° West  Level Estimated
Mon 07:24:00 AM 31.1428 121.7924 221° Southwest  Level Estimated
Mon 07:25:00 AM 31.1428 121.7924 221° Southwest  Level Estimated
Mon 07:26:00 AM 31.1428 121.7924 221° Southwest  Level Estimated
Mon 07:27:00 AM 31.1428 121.7924 221° Southwest  Level Estimated
Mon 07:28:00 AM 31.1428 121.7924 221° Southwest  Level Estimated

Login

Don't have an account? Register now (free) for customized features, flight alerts, and more!